Ruso, North Dakota
Current Conditions -  °F | °C
As of 9:54 PM on Sunday 25 Jan 2015 (Local Time) from KMOT Reporting Station
Clear Clear  
Wind Chill: 30°   Ceiling: Unl
Heat Index: 40°   Visibility: 10mi
Dew Point: 32°   Wind: 21mph
Humidity: 73%   Direction: 240°WSW
Pressure: 29.68"   Gusts: 28mph
Location:  47.84°N, 100.93°W
Report Text: KMOT 260354Z AUTO 24018G24KT 10SM CLR 04/00 A2968 RMK AO2 SLP072 T00440000
Loading
Personal Weather Stations






























Interactive Weather Map New forecast layout! Learn more

10-Day Weather Forecast

Advertisements
Track Severe Weather on mobile